sensor_id;sensor_type;location;lat;lon;timestamp;temperature;humidity
14779;DHT22;7481;53.750;10.570;2022-09-01T00:02:38;13.70;99.90
14779;DHT22;7481;53.750;10.570;2022-09-01T00:05:26;13.70;99.90
14779;DHT22;7481;53.750;10.570;2022-09-01T00:08:13;13.70;99.90
14779;DHT22;7481;53.750;10.570;2022-09-01T00:11:04;13.70;99.90
14779;DHT22;7481;53.750;10.570;2022-09-01T00:13:51;13.70;99.90
14779;DHT22;7481;53.750;10.570;2022-09-01T00:16:39;13.70;99.90
14779;DHT22;7481;53.750;10.570;2022-09-01T00:19:26;13.60;99.90
14779;DHT22;7481;53.750;10.570;2022-09-01T00:22:13;13.50;99.90
14779;DHT22;7481;53.750;10.570;2022-09-01T00:25:00;13.50;99.90
14779;DHT22;7481;53.750;10.570;2022-09-01T00:27:47;13.40;99.90
14779;DHT22;7481;53.750;10.570;2022-09-01T00:30:35;13.30;99.90
14779;DHT22;7481;53.750;10.570;2022-09-01T00:33:22;13.30;99.90
14779;DHT22;7481;53.750;10.570;2022-09-01T00:36:09;13.30;99.90
14779;DHT22;7481;53.750;10.570;2022-09-01T00:38:56;13.30;99.90
14779;DHT22;7481;53.750;10.570;2022-09-01T00:41:43;13.20;99.90
14779;DHT22;7481;53.750;10.570;2022-09-01T00:44:31;13.20;99.90
14779;DHT22;7481;53.750;10.570;2022-09-01T00:47:18;13.20;99.90
14779;DHT22;7481;53.750;10.570;2022-09-01T00:50:08;13.20;99.90
14779;DHT22;7481;53.750;10.570;2022-09-01T00:52:57;13.20;99.90
14779;DHT22;7481;53.750;10.570;2022-09-01T00:55:44;13.10;99.90
14779;DHT22;7481;53.750;10.570;2022-09-01T00:58:31;13.20;99.90
14779;DHT22;7481;53.750;10.570;2022-09-01T01:01:20;13.20;99.90
14779;DHT22;7481;53.750;10.570;2022-09-01T01:04:08;13.10;99.90
14779;DHT22;7481;53.750;10.570;2022-09-01T01:07:00;13.10;99.90
14779;DHT22;7481;53.750;10.570;2022-09-01T01:09:48;13.10;99.90
14779;DHT22;7481;53.750;10.570;2022-09-01T01:12:36;13.00;99.90
14779;DHT22;7481;53.750;10.570;2022-09-01T01:15:26;13.00;99.90
14779;DHT22;7481;53.750;10.570;2022-09-01T01:18:15;13.00;99.90
14779;DHT22;7481;53.750;10.570;2022-09-01T01:21:34;13.00;99.90
14779;DHT22;7481;53.750;10.570;2022-09-01T01:24:40;13.10;99.90
14779;DHT22;7481;53.750;10.570;2022-09-01T01:27:34;12.90;99.90
14779;DHT22;7481;53.750;10.570;2022-09-01T01:30:28;12.90;99.90
14779;DHT22;7481;53.750;10.570;2022-09-01T01:33:24;12.90;99.90
14779;DHT22;7481;53.750;10.570;2022-09-01T01:39:03;12.80;99.90
14779;DHT22;7481;53.750;10.570;2022-09-01T01:41:54;12.80;99.90
14779;DHT22;7481;53.750;10.570;2022-09-01T01:44:41;12.80;99.90
14779;DHT22;7481;53.750;10.570;2022-09-01T01:47:28;12.80;99.90
14779;DHT22;7481;53.750;10.570;2022-09-01T01:50:15;12.90;99.90
14779;DHT22;7481;53.750;10.570;2022-09-01T01:53:06;12.90;99.90
14779;DHT22;7481;53.750;10.570;2022-09-01T01:55:57;12.90;99.90
14779;DHT22;7481;53.750;10.570;2022-09-01T01:58:45;12.90;99.90
14779;DHT22;7481;53.750;10.570;2022-09-01T02:01:32;12.80;99.90
14779;DHT22;7481;53.750;10.570;2022-09-01T02:04:19;12.80;99.90
14779;DHT22;7481;53.750;10.570;2022-09-01T02:07:11;12.70;99.90
14779;DHT22;7481;53.750;10.570;2022-09-01T02:09:58;12.70;99.90
14779;DHT22;7481;53.750;10.570;2022-09-01T02:12:47;12.60;99.90
14779;DHT22;7481;53.750;10.570;2022-09-01T02:15:37;12.60;99.90
14779;DHT22;7481;53.750;10.570;2022-09-01T02:18:34;12.60;99.90
14779;DHT22;7481;53.750;10.570;2022-09-01T02:21:23;12.60;99.90
14779;DHT22;7481;53.750;10.570;2022-09-01T02:24:10;12.60;99.90
14779;DHT22;7481;53.750;10.570;2022-09-01T02:26:58;12.50;99.90
14779;DHT22;7481;53.750;10.570;2022-09-01T02:29:46;12.50;99.90
14779;DHT22;7481;53.750;10.570;2022-09-01T02:32:33;12.40;99.90
14779;DHT22;7481;53.750;10.570;2022-09-01T02:35:20;12.40;99.90
14779;DHT22;7481;53.750;10.570;2022-09-01T02:38:07;12.50;99.90
14779;DHT22;7481;53.750;10.570;2022-09-01T02:40:56;12.40;99.90
14779;DHT22;7481;53.750;10.570;2022-09-01T02:43:44;12.40;99.90
14779;DHT22;7481;53.750;10.570;2022-09-01T02:46:32;12.50;99.90
14779;DHT22;7481;53.750;10.570;2022-09-01T02:49:20;12.60;99.90
14779;DHT22;7481;53.750;10.570;2022-09-01T02:52:10;12.70;99.90
14779;DHT22;7481;53.750;10.570;2022-09-01T02:54:57;12.60;99.90
14779;DHT22;7481;53.750;10.570;2022-09-01T02:57:45;12.60;99.90
14779;DHT22;7481;53.750;10.570;2022-09-01T03:00:36;12.60;99.90
14779;DHT22;7481;53.750;10.570;2022-09-01T03:03:26;12.70;99.90
14779;DHT22;7481;53.750;10.570;2022-09-01T03:06:14;12.70;99.90
14779;DHT22;7481;53.750;10.570;2022-09-01T03:09:07;12.60;99.90
14779;DHT22;7481;53.750;10.570;2022-09-01T03:11:57;12.50;99.90
14779;DHT22;7481;53.750;10.570;2022-09-01T03:14:44;12.60;99.90
14779;DHT22;7481;53.750;10.570;2022-09-01T03:17:31;12.70;99.90
14779;DHT22;7481;53.750;10.570;2022-09-01T03:20:18;12.60;99.90
14779;DHT22;7481;53.750;10.570;2022-09-01T03:23:08;12.60;99.90
14779;DHT22;7481;53.750;10.570;2022-09-01T03:25:55;12.50;99.90
14779;DHT22;7481;53.750;10.570;2022-09-01T03:28:43;12.40;99.90
14779;DHT22;7481;53.750;10.570;2022-09-01T03:31:30;12.40;99.90
14779;DHT22;7481;53.750;10.570;2022-09-01T03:34:17;12.30;99.90
14779;DHT22;7481;53.750;10.570;2022-09-01T03:37:09;12.20;99.90
14779;DHT22;7481;53.750;10.570;2022-09-01T03:39:57;12.20;99.90
14779;DHT22;7481;53.750;10.570;2022-09-01T03:42:45;12.30;99.90
14779;DHT22;7481;53.750;10.570;2022-09-01T03:45:32;12.30;99.90
14779;DHT22;7481;53.750;10.570;2022-09-01T03:48:24;12.90;99.90
14779;DHT22;7481;53.750;10.570;2022-09-01T03:51:14;12.90;99.90
14779;DHT22;7481;53.750;10.570;2022-09-01T03:54:01;12.70;99.90
14779;DHT22;7481;53.750;10.570;2022-09-01T03:56:48;12.50;99.90
14779;DHT22;7481;53.750;10.570;2022-09-01T03:59:36;12.30;99.90
14779;DHT22;7481;53.750;10.570;2022-09-01T04:02:29;12.30;99.90
14779;DHT22;7481;53.750;10.570;2022-09-01T04:05:20;12.20;99.90
14779;DHT22;7481;53.750;10.570;2022-09-01T04:08:12;12.10;99.90
14779;DHT22;7481;53.750;10.570;2022-09-01T04:11:09;12.20;99.90
14779;DHT22;7481;53.750;10.570;2022-09-01T04:13:57;12.20;99.90
14779;DHT22;7481;53.750;10.570;2022-09-01T04:16:44;12.20;99.90
14779;DHT22;7481;53.750;10.570;2022-09-01T04:19:50;12.10;99.90
14779;DHT22;7481;53.750;10.570;2022-09-01T04:22:37;12.10;99.90
14779;DHT22;7481;53.750;10.570;2022-09-01T04:25:24;12.00;99.90
14779;DHT22;7481;53.750;10.570;2022-09-01T04:28:12;12.00;99.90
14779;DHT22;7481;53.750;10.570;2022-09-01T04:31:10;12.00;99.90
14779;DHT22;7481;53.750;10.570;2022-09-01T04:34:03;12.00;99.90
14779;DHT22;7481;53.750;10.570;2022-09-01T04:36:57;11.90;99.90
14779;DHT22;7481;53.750;10.570;2022-09-01T04:39:55;11.90;99.90
14779;DHT22;7481;53.750;10.570;2022-09-01T04:42:43;11.90;99.90
14779;DHT22;7481;53.750;10.570;2022-09-01T04:45:31;11.90;99.90
14779;DHT22;7481;53.750;10.570;2022-09-01T04:48:20;12.10;99.90
14779;DHT22;7481;53.750;10.570;2022-09-01T04:51:09;12.00;99.90
14779;DHT22;7481;53.750;10.570;2022-09-01T04:53:56;12.10;99.90
14779;DHT22;7481;53.750;10.570;2022-09-01T04:56:46;12.10;99.90
14779;DHT22;7481;53.750;10.570;2022-09-01T04:59:35;12.10;99.90
14779;DHT22;7481;53.750;10.570;2022-09-01T05:02:22;12.10;99.90
14779;DHT22;7481;53.750;10.570;2022-09-01T05:05:13;12.20;99.90
14779;DHT22;7481;53.750;10.570;2022-09-01T05:08:00;12.10;99.90
14779;DHT22;7481;53.750;10.570;2022-09-01T05:10:49;12.00;99.90
14779;DHT22;7481;53.750;10.570;2022-09-01T05:13:45;12.00;99.90
14779;DHT22;7481;53.750;10.570;2022-09-01T05:16:34;11.90;99.90
14779;DHT22;7481;53.750;10.570;2022-09-01T05:19:21;12.00;99.90
14779;DHT22;7481;53.750;10.570;2022-09-01T05:22:11;12.00;99.90
14779;DHT22;7481;53.750;10.570;2022-09-01T05:25:00;12.00;99.90
14779;DHT22;7481;53.750;10.570;2022-09-01T05:27:57;12.00;99.90
14779;DHT22;7481;53.750;10.570;2022-09-01T05:30:46;12.10;99.90
14779;DHT22;7481;53.750;10.570;2022-09-01T05:33:34;12.10;99.90
14779;DHT22;7481;53.750;10.570;2022-09-01T05:36:23;12.30;99.90
14779;DHT22;7481;53.750;10.570;2022-09-01T05:39:11;13.70;99.90
14779;DHT22;7481;53.750;10.570;2022-09-01T05:41:58;12.50;99.90
14779;DHT22;7481;53.750;10.570;2022-09-01T05:44:47;12.50;99.90
14779;DHT22;7481;53.750;10.570;2022-09-01T05:47:39;12.60;99.90
14779;DHT22;7481;53.750;10.570;2022-09-01T05:50:27;12.60;99.90
14779;DHT22;7481;53.750;10.570;2022-09-01T05:53:15;12.70;99.90
14779;DHT22;7481;53.750;10.570;2022-09-01T05:56:07;12.80;99.90
14779;DHT22;7481;53.750;10.570;2022-09-01T05:58:55;12.90;99.90
14779;DHT22;7481;53.750;10.570;2022-09-01T06:02:06;12.90;99.90
14779;DHT22;7481;53.750;10.570;2022-09-01T06:04:55;13.00;99.90
14779;DHT22;7481;53.750;10.570;2022-09-01T06:07:43;13.00;99.90
14779;DHT22;7481;53.750;10.570;2022-09-01T06:10:31;13.10;99.90
14779;DHT22;7481;53.750;10.570;2022-09-01T06:13:18;13.10;99.90
14779;DHT22;7481;53.750;10.570;2022-09-01T06:16:13;13.20;99.90
14779;DHT22;7481;53.750;10.570;2022-09-01T06:19:02;13.30;99.90
14779;DHT22;7481;53.750;10.570;2022-09-01T06:21:50;13.40;99.90
14779;DHT22;7481;53.750;10.570;2022-09-01T06:24:38;13.40;99.90
14779;DHT22;7481;53.750;10.570;2022-09-01T06:27:29;13.50;99.90
14779;DHT22;7481;53.750;10.570;2022-09-01T06:30:18;13.60;99.90
14779;DHT22;7481;53.750;10.570;2022-09-01T06:33:11;13.60;99.90
14779;DHT22;7481;53.750;10.570;2022-09-01T06:36:00;13.70;99.90
14779;DHT22;7481;53.750;10.570;2022-09-01T06:38:52;13.80;99.90
14779;DHT22;7481;53.750;10.570;2022-09-01T06:41:40;13.80;99.90
14779;DHT22;7481;53.750;10.570;2022-09-01T06:44:27;13.90;99.90
14779;DHT22;7481;53.750;10.570;2022-09-01T06:47:17;14.00;99.90
14779;DHT22;7481;53.750;10.570;2022-09-01T06:50:05;14.10;99.90
14779;DHT22;7481;53.750;10.570;2022-09-01T06:52:54;14.20;99.90
14779;DHT22;7481;53.750;10.570;2022-09-01T06:56:16;14.20;99.90
14779;DHT22;7481;53.750;10.570;2022-09-01T06:59:04;14.30;99.90
14779;DHT22;7481;53.750;10.570;2022-09-01T07:01:53;14.50;99.90
14779;DHT22;7481;53.750;10.570;2022-09-01T07:05:00;14.60;99.90
14779;DHT22;7481;53.750;10.570;2022-09-01T07:07:50;14.70;99.90
14779;DHT22;7481;53.750;10.570;2022-09-01T07:10:51;14.80;99.90
14779;DHT22;7481;53.750;10.570;2022-09-01T07:14:04;14.90;99.90
14779;DHT22;7481;53.750;10.570;2022-09-01T07:17:07;15.00;99.90
14779;DHT22;7481;53.750;10.570;2022-09-01T07:20:09;15.40;99.90
14779;DHT22;7481;53.750;10.570;2022-09-01T07:23:14;16.40;99.90
14779;DHT22;7481;53.750;10.570;2022-09-01T07:26:05;18.30;99.90
14779;DHT22;7481;53.750;10.570;2022-09-01T07:28:53;22.80;99.90
14779;DHT22;7481;53.750;10.570;2022-09-01T07:31:48;22.60;99.90
14779;DHT22;7481;53.750;10.570;2022-09-01T07:34:35;24.10;99.90
14779;DHT22;7481;53.750;10.570;2022-09-01T07:37:25;25.20;99.90
14779;DHT22;7481;53.750;10.570;2022-09-01T07:40:33;26.00;99.90
14779;DHT22;7481;53.750;10.570;2022-09-01T07:43:43;26.70;99.00
14779;DHT22;7481;53.750;10.570;2022-09-01T07:46:31;27.30;98.40
14779;DHT22;7481;53.750;10.570;2022-09-01T07:49:26;27.80;96.30
14779;DHT22;7481;53.750;10.570;2022-09-01T07:52:16;28.20;95.20
14779;DHT22;7481;53.750;10.570;2022-09-01T07:55:09;28.40;94.90
14779;DHT22;7481;53.750;10.570;2022-09-01T07:57:58;28.30;94.50
14779;DHT22;7481;53.750;10.570;2022-09-01T08:00:45;28.20;94.40
14779;DHT22;7481;53.750;10.570;2022-09-01T08:03:33;28.60;94.40
14779;DHT22;7481;53.750;10.570;2022-09-01T08:06:22;29.30;93.80
14779;DHT22;7481;53.750;10.570;2022-09-01T08:09:13;29.50;93.50
14779;DHT22;7481;53.750;10.570;2022-09-01T08:12:20;29.10;93.10
14779;DHT22;7481;53.750;10.570;2022-09-01T08:15:15;29.00;92.90
14779;DHT22;7481;53.750;10.570;2022-09-01T08:18:22;28.80;93.20
14779;DHT22;7481;53.750;10.570;2022-09-01T08:21:11;28.50;93.60
14779;DHT22;7481;53.750;10.570;2022-09-01T08:23:58;28.60;93.90
14779;DHT22;7481;53.750;10.570;2022-09-01T08:26:45;28.40;93.40
14779;DHT22;7481;53.750;10.570;2022-09-01T08:29:33;28.30;93.50
14779;DHT22;7481;53.750;10.570;2022-09-01T08:32:20;28.80;93.50
14779;DHT22;7481;53.750;10.570;2022-09-01T08:35:09;29.30;92.70
14779;DHT22;7481;53.750;10.570;2022-09-01T08:37:57;29.40;91.70
14779;DHT22;7481;53.750;10.570;2022-09-01T08:40:53;27.90;93.20
14779;DHT22;7481;53.750;10.570;2022-09-01T08:43:52;27.20;93.90
14779;DHT22;7481;53.750;10.570;2022-09-01T08:46:43;27.00;94.00
14779;DHT22;7481;53.750;10.570;2022-09-01T08:49:33;27.50;93.90
14779;DHT22;7481;53.750;10.570;2022-09-01T08:52:33;28.40;92.90
14779;DHT22;7481;53.750;10.570;2022-09-01T08:55:26;29.30;91.70
14779;DHT22;7481;53.750;10.570;2022-09-01T08:58:16;29.00;90.80
14779;DHT22;7481;53.750;10.570;2022-09-01T09:01:10;28.10;91.70
14779;DHT22;7481;53.750;10.570;2022-09-01T09:04:09;27.20;92.40
14779;DHT22;7481;53.750;10.570;2022-09-01T09:07:01;26.90;92.60
14779;DHT22;7481;53.750;10.570;2022-09-01T09:10:02;25.60;94.30
14779;DHT22;7481;53.750;10.570;2022-09-01T09:13:04;24.60;96.90
14779;DHT22;7481;53.750;10.570;2022-09-01T09:15:59;23.20;98.70
14779;DHT22;7481;53.750;10.570;2022-09-01T09:22:21;21.80;99.90
14779;DHT22;7481;53.750;10.570;2022-09-01T09:25:16;21.50;99.90
14779;DHT22;7481;53.750;10.570;2022-09-01T09:28:05;21.10;99.90
14779;DHT22;7481;53.750;10.570;2022-09-01T09:34:33;20.40;99.90
14779;DHT22;7481;53.750;10.570;2022-09-01T09:37:29;20.10;99.90
14779;DHT22;7481;53.750;10.570;2022-09-01T09:40:19;19.90;99.90
14779;DHT22;7481;53.750;10.570;2022-09-01T09:43:07;19.80;99.90
14779;DHT22;7481;53.750;10.570;2022-09-01T09:49:53;19.90;99.90
14779;DHT22;7481;53.750;10.570;2022-09-01T09:52:34;20.00;99.90
14779;DHT22;7481;53.750;10.570;2022-09-01T09:55:24;20.20;99.90
14779;DHT22;7481;53.750;10.570;2022-09-01T09:58:11;20.30;99.90
14779;DHT22;7481;53.750;10.570;2022-09-01T10:01:11;20.30;99.90
14779;DHT22;7481;53.750;10.570;2022-09-01T10:04:03;20.30;99.90
14779;DHT22;7481;53.750;10.570;2022-09-01T10:06:51;20.30;99.90
14779;DHT22;7481;53.750;10.570;2022-09-01T10:09:40;20.30;99.90
14779;DHT22;7481;53.750;10.570;2022-09-01T10:12:27;20.30;99.90
14779;DHT22;7481;53.750;10.570;2022-09-01T10:15:18;20.30;99.90
14779;DHT22;7481;53.750;10.570;2022-09-01T10:18:16;20.40;99.90
14779;DHT22;7481;53.750;10.570;2022-09-01T10:21:23;20.40;99.90
14779;DHT22;7481;53.750;10.570;2022-09-01T10:24:34;20.40;99.90
14779;DHT22;7481;53.750;10.570;2022-09-01T10:27:29;20.90;99.90
14779;DHT22;7481;53.750;10.570;2022-09-01T10:30:21;22.60;99.90
14779;DHT22;7481;53.750;10.570;2022-09-01T10:33:09;24.20;97.10
14779;DHT22;7481;53.750;10.570;2022-09-01T10:36:06;25.40;93.40
14779;DHT22;7481;53.750;10.570;2022-09-01T10:38:54;26.40;91.60
14779;DHT22;7481;53.750;10.570;2022-09-01T10:41:53;27.00;92.70
14779;DHT22;7481;53.750;10.570;2022-09-01T10:44:57;27.60;90.90
14779;DHT22;7481;53.750;10.570;2022-09-01T10:47:47;27.50;89.20
14779;DHT22;7481;53.750;10.570;2022-09-01T10:50:34;27.00;89.60
14779;DHT22;7481;53.750;10.570;2022-09-01T10:53:49;26.70;91.20
14779;DHT22;7481;53.750;10.570;2022-09-01T10:56:38;26.40;92.20
14779;DHT22;7481;53.750;10.570;2022-09-01T10:59:30;26.20;91.60
14779;DHT22;7481;53.750;10.570;2022-09-01T11:02:26;26.70;91.90
14779;DHT22;7481;53.750;10.570;2022-09-01T11:05:22;27.10;90.90
14779;DHT22;7481;53.750;10.570;2022-09-01T11:11:23;27.70;90.10
14779;DHT22;7481;53.750;10.570;2022-09-01T11:14:20;27.40;90.30
14779;DHT22;7481;53.750;10.570;2022-09-01T11:17:18;27.80;90.60
14779;DHT22;7481;53.750;10.570;2022-09-01T11:20:26;27.70;90.80
14779;DHT22;7481;53.750;10.570;2022-09-01T11:23:26;26.40;90.10
14779;DHT22;7481;53.750;10.570;2022-09-01T11:32:40;23.30;93.00
14779;DHT22;7481;53.750;10.570;2022-09-01T11:35:32;23.00;93.40
14779;DHT22;7481;53.750;10.570;2022-09-01T11:38:20;22.90;93.80
14779;DHT22;7481;53.750;10.570;2022-09-01T11:41:08;23.00;93.60
14779;DHT22;7481;53.750;10.570;2022-09-01T11:43:56;23.00;92.90
14779;DHT22;7481;53.750;10.570;2022-09-01T11:46:44;22.70;93.00
14779;DHT22;7481;53.750;10.570;2022-09-01T11:49:34;22.50;93.50
14779;DHT22;7481;53.750;10.570;2022-09-01T11:52:27;22.20;94.40
14779;DHT22;7481;53.750;10.570;2022-09-01T11:55:40;22.20;94.40
14779;DHT22;7481;53.750;10.570;2022-09-01T12:01:37;23.10;92.50
14779;DHT22;7481;53.750;10.570;2022-09-01T12:04:30;24.20;91.60
14779;DHT22;7481;53.750;10.570;2022-09-01T12:07:29;25.40;91.70
14779;DHT22;7481;53.750;10.570;2022-09-01T12:10:34;25.80;88.60
14779;DHT22;7481;53.750;10.570;2022-09-01T12:13:23;25.20;88.60
14779;DHT22;7481;53.750;10.570;2022-09-01T12:16:10;24.60;90.20
14779;DHT22;7481;53.750;10.570;2022-09-01T12:19:07;24.80;90.80
14779;DHT22;7481;53.750;10.570;2022-09-01T12:22:12;25.20;90.50
14779;DHT22;7481;53.750;10.570;2022-09-01T12:25:03;25.40;90.10
14779;DHT22;7481;53.750;10.570;2022-09-01T12:27:50;25.50;90.50
14779;DHT22;7481;53.750;10.570;2022-09-01T12:30:39;25.70;90.50
14779;DHT22;7481;53.750;10.570;2022-09-01T12:33:27;26.10;90.10
14779;DHT22;7481;53.750;10.570;2022-09-01T12:36:21;26.00;90.10
14779;DHT22;7481;53.750;10.570;2022-09-01T12:39:23;25.90;89.90
14779;DHT22;7481;53.750;10.570;2022-09-01T12:45:10;25.90;90.30
14779;DHT22;7481;53.750;10.570;2022-09-01T12:47:58;26.00;90.90
14779;DHT22;7481;53.750;10.570;2022-09-01T12:50:46;25.80;89.40
14779;DHT22;7481;53.750;10.570;2022-09-01T12:53:33;25.90;90.50
14779;DHT22;7481;53.750;10.570;2022-09-01T12:56:32;25.90;90.10
14779;DHT22;7481;53.750;10.570;2022-09-01T12:59:25;25.80;89.70
14779;DHT22;7481;53.750;10.570;2022-09-01T13:02:33;25.70;89.80
14779;DHT22;7481;53.750;10.570;2022-09-01T13:05:38;25.50;90.60
14779;DHT22;7481;53.750;10.570;2022-09-01T13:08:31;25.20;90.40
14779;DHT22;7481;53.750;10.570;2022-09-01T13:11:19;26.70;91.80
14779;DHT22;7481;53.750;10.570;2022-09-01T13:14:07;24.80;92.20
14779;DHT22;7481;53.750;10.570;2022-09-01T13:16:54;25.10;92.10
14779;DHT22;7481;53.750;10.570;2022-09-01T13:19:41;25.20;92.20
14779;DHT22;7481;53.750;10.570;2022-09-01T13:22:28;25.30;91.60
14779;DHT22;7481;53.750;10.570;2022-09-01T13:25:18;25.30;91.20
14779;DHT22;7481;53.750;10.570;2022-09-01T13:28:06;25.30;91.50
14779;DHT22;7481;53.750;10.570;2022-09-01T13:30:56;25.20;91.10
14779;DHT22;7481;53.750;10.570;2022-09-01T13:34:04;24.80;92.00
14779;DHT22;7481;53.750;10.570;2022-09-01T13:36:57;24.60;92.50
14779;DHT22;7481;53.750;10.570;2022-09-01T13:39:44;24.60;92.60
14779;DHT22;7481;53.750;10.570;2022-09-01T13:42:33;24.60;92.20
14779;DHT22;7481;53.750;10.570;2022-09-01T13:45:22;24.70;92.00
14779;DHT22;7481;53.750;10.570;2022-09-01T13:48:11;24.60;91.80
14779;DHT22;7481;53.750;10.570;2022-09-01T13:51:02;24.50;91.60
14779;DHT22;7481;53.750;10.570;2022-09-01T13:54:05;24.10;92.00
14779;DHT22;7481;53.750;10.570;2022-09-01T13:56:52;23.90;92.80
14779;DHT22;7481;53.750;10.570;2022-09-01T13:59:39;24.00;92.70
14779;DHT22;7481;53.750;10.570;2022-09-01T14:02:27;23.60;92.60
14779;DHT22;7481;53.750;10.570;2022-09-01T14:05:23;23.70;93.00
14779;DHT22;7481;53.750;10.570;2022-09-01T14:08:11;23.50;92.70
14779;DHT22;7481;53.750;10.570;2022-09-01T14:10:59;23.50;93.10
14779;DHT22;7481;53.750;10.570;2022-09-01T14:13:46;23.60;93.20
14779;DHT22;7481;53.750;10.570;2022-09-01T14:16:33;23.70;93.20
14779;DHT22;7481;53.750;10.570;2022-09-01T14:19:20;23.60;93.20
14779;DHT22;7481;53.750;10.570;2022-09-01T14:22:08;23.40;93.40
14779;DHT22;7481;53.750;10.570;2022-09-01T14:24:55;23.20;93.80
14779;DHT22;7481;53.750;10.570;2022-09-01T14:27:42;23.00;93.60
14779;DHT22;7481;53.750;10.570;2022-09-01T14:30:31;22.90;94.10
14779;DHT22;7481;53.750;10.570;2022-09-01T14:33:19;22.90;94.10
14779;DHT22;7481;53.750;10.570;2022-09-01T14:36:17;22.80;93.60
14779;DHT22;7481;53.750;10.570;2022-09-01T14:39:05;22.70;93.90
14779;DHT22;7481;53.750;10.570;2022-09-01T14:41:52;22.60;94.10
14779;DHT22;7481;53.750;10.570;2022-09-01T14:44:39;22.50;93.90
14779;DHT22;7481;53.750;10.570;2022-09-01T14:47:26;22.40;93.90
14779;DHT22;7481;53.750;10.570;2022-09-01T14:50:14;22.30;94.10
14779;DHT22;7481;53.750;10.570;2022-09-01T14:53:08;22.10;94.30
14779;DHT22;7481;53.750;10.570;2022-09-01T14:55:57;22.00;94.70
14779;DHT22;7481;53.750;10.570;2022-09-01T14:58:45;21.90;94.80
14779;DHT22;7481;53.750;10.570;2022-09-01T15:01:32;21.80;94.50
14779;DHT22;7481;53.750;10.570;2022-09-01T15:04:21;21.70;94.70
14779;DHT22;7481;53.750;10.570;2022-09-01T15:07:08;21.70;94.40
14779;DHT22;7481;53.750;10.570;2022-09-01T15:09:55;21.70;95.10
14779;DHT22;7481;53.750;10.570;2022-09-01T15:12:44;21.70;94.90
14779;DHT22;7481;53.750;10.570;2022-09-01T15:15:32;21.60;95.00
14779;DHT22;7481;53.750;10.570;2022-09-01T15:18:19;21.50;95.30
14779;DHT22;7481;53.750;10.570;2022-09-01T15:21:07;21.50;95.30
14779;DHT22;7481;53.750;10.570;2022-09-01T15:23:55;21.40;95.40
14779;DHT22;7481;53.750;10.570;2022-09-01T15:26:42;21.10;95.60
14779;DHT22;7481;53.750;10.570;2022-09-01T15:29:33;21.00;96.20
14779;DHT22;7481;53.750;10.570;2022-09-01T15:32:22;21.00;96.40
14779;DHT22;7481;53.750;10.570;2022-09-01T15:35:14;20.90;96.30
14779;DHT22;7481;53.750;10.570;2022-09-01T15:38:02;20.90;96.20
14779;DHT22;7481;53.750;10.570;2022-09-01T15:40:50;20.80;96.20
14779;DHT22;7481;53.750;10.570;2022-09-01T15:43:44;20.70;97.00
14779;DHT22;7481;53.750;10.570;2022-09-01T15:46:33;20.70;96.60
14779;DHT22;7481;53.750;10.570;2022-09-01T15:49:20;20.60;96.40
14779;DHT22;7481;53.750;10.570;2022-09-01T15:52:07;20.60;96.60
14779;DHT22;7481;53.750;10.570;2022-09-01T15:54:55;20.40;96.60
14779;DHT22;7481;53.750;10.570;2022-09-01T15:57:42;20.40;96.90
14779;DHT22;7481;53.750;10.570;2022-09-01T16:00:29;20.30;96.40
14779;DHT22;7481;53.750;10.570;2022-09-01T16:03:16;20.30;96.60
14779;DHT22;7481;53.750;10.570;2022-09-01T16:06:03;20.30;96.90
14779;DHT22;7481;53.750;10.570;2022-09-01T16:08:52;20.30;96.30
14779;DHT22;7481;53.750;10.570;2022-09-01T16:11:40;20.20;96.50
14779;DHT22;7481;53.750;10.570;2022-09-01T16:14:28;20.10;96.60
14779;DHT22;7481;53.750;10.570;2022-09-01T16:17:37;20.00;96.90
14779;DHT22;7481;53.750;10.570;2022-09-01T16:21:11;20.00;97.10
14779;DHT22;7481;53.750;10.570;2022-09-01T16:24:07;19.80;97.10
14779;DHT22;7481;53.750;10.570;2022-09-01T16:26:55;19.70;97.20
14779;DHT22;7481;53.750;10.570;2022-09-01T16:29:47;19.70;97.10
14779;DHT22;7481;53.750;10.570;2022-09-01T16:32:40;19.60;97.20
14779;DHT22;7481;53.750;10.570;2022-09-01T16:36:16;19.60;96.60
14779;DHT22;7481;53.750;10.570;2022-09-01T16:39:24;19.50;96.80
14779;DHT22;7481;53.750;10.570;2022-09-01T16:42:31;19.40;96.80
14779;DHT22;7481;53.750;10.570;2022-09-01T16:58:02;19.10;98.10
14779;DHT22;7481;53.750;10.570;2022-09-01T17:04:44;19.00;98.10
14779;DHT22;7481;53.750;10.570;2022-09-01T17:10:40;18.80;98.40
14779;DHT22;7481;53.750;10.570;2022-09-01T17:16:38;18.70;97.30
14779;DHT22;7481;53.750;10.570;2022-09-01T17:19:27;18.60;97.30
14779;DHT22;7481;53.750;10.570;2022-09-01T17:22:15;18.60;97.70
14779;DHT22;7481;53.750;10.570;2022-09-01T17:25:06;18.50;97.80
14779;DHT22;7481;53.750;10.570;2022-09-01T17:28:00;18.50;98.10
14779;DHT22;7481;53.750;10.570;2022-09-01T17:31:05;18.50;98.70
14779;DHT22;7481;53.750;10.570;2022-09-01T17:37:00;18.40;98.80
14779;DHT22;7481;53.750;10.570;2022-09-01T17:42:59;18.40;99.30
14779;DHT22;7481;53.750;10.570;2022-09-01T17:45:54;18.30;99.80
14779;DHT22;7481;53.750;10.570;2022-09-01T17:48:56;18.20;99.70
14779;DHT22;7481;53.750;10.570;2022-09-01T17:56:17;18.20;99.90
14779;DHT22;7481;53.750;10.570;2022-09-01T17:59:00;18.20;99.90
14779;DHT22;7481;53.750;10.570;2022-09-01T18:05:22;18.10;99.90
14779;DHT22;7481;53.750;10.570;2022-09-01T18:08:39;18.00;99.90
14779;DHT22;7481;53.750;10.570;2022-09-01T18:12:01;18.00;99.90
14779;DHT22;7481;53.750;10.570;2022-09-01T18:14:58;17.90;99.90
14779;DHT22;7481;53.750;10.570;2022-09-01T18:17:53;17.80;99.90
14779;DHT22;7481;53.750;10.570;2022-09-01T18:20:45;17.70;99.90
14779;DHT22;7481;53.750;10.570;2022-09-01T18:23:42;17.60;99.90
14779;DHT22;7481;53.750;10.570;2022-09-01T18:26:32;17.60;99.90
14779;DHT22;7481;53.750;10.570;2022-09-01T18:29:21;17.50;99.90
14779;DHT22;7481;53.750;10.570;2022-09-01T18:32:26;17.40;99.90
14779;DHT22;7481;53.750;10.570;2022-09-01T18:35:31;17.40;99.90
14779;DHT22;7481;53.750;10.570;2022-09-01T18:38:30;17.40;99.90
14779;DHT22;7481;53.750;10.570;2022-09-01T18:47:32;17.20;99.90
14779;DHT22;7481;53.750;10.570;2022-09-01T18:50:31;17.20;99.90
14779;DHT22;7481;53.750;10.570;2022-09-01T18:56:31;17.00;99.90
14779;DHT22;7481;53.750;10.570;2022-09-01T19:14:56;16.50;99.90
14779;DHT22;7481;53.750;10.570;2022-09-01T19:21:20;16.50;99.90
14779;DHT22;7481;53.750;10.570;2022-09-01T19:24:19;16.50;99.90
14779;DHT22;7481;53.750;10.570;2022-09-01T19:27:14;16.40;99.90
14779;DHT22;7481;53.750;10.570;2022-09-01T19:30:04;16.30;99.90
14779;DHT22;7481;53.750;10.570;2022-09-01T19:32:53;16.20;99.90
14779;DHT22;7481;53.750;10.570;2022-09-01T19:35:44;16.10;99.90
14779;DHT22;7481;53.750;10.570;2022-09-01T19:38:32;15.90;99.90
14779;DHT22;7481;53.750;10.570;2022-09-01T19:41:25;15.90;99.90